createdAt,value
2018-03-07T00:03:09.639Z,1.00
2018-03-07T00:08:01.284Z,0.90
2018-03-07T00:12:52.920Z,0.90
2018-03-07T00:17:44.568Z,0.90
2018-03-07T00:22:36.199Z,0.90
2018-03-07T00:27:27.847Z,0.90
2018-03-07T00:32:19.494Z,0.90
2018-03-07T00:37:11.127Z,0.90
2018-03-07T00:42:02.119Z,0.90
2018-03-07T00:46:53.038Z,0.90
2018-03-07T00:51:43.935Z,0.90
2018-03-07T00:56:34.875Z,0.90
2018-03-07T01:01:25.779Z,0.90
2018-03-07T01:06:16.696Z,0.90
2018-03-07T01:11:07.624Z,0.90
2018-03-07T01:15:58.524Z,0.90
2018-03-07T01:20:49.427Z,0.90
2018-03-07T01:25:41.070Z,0.90
2018-03-07T01:30:31.962Z,0.90
2018-03-07T01:35:22.855Z,0.90
2018-03-07T01:40:13.823Z,0.90
2018-03-07T01:45:05.484Z,0.90
2018-03-07T01:49:57.111Z,0.90
2018-03-07T01:54:48.759Z,0.90
2018-03-07T01:59:39.774Z,0.80
2018-03-07T02:04:30.690Z,0.80
2018-03-07T02:09:21.587Z,0.90
2018-03-07T02:14:12.510Z,0.90
2018-03-07T02:19:03.403Z,0.80
2018-03-07T02:23:54.298Z,0.80
2018-03-07T02:28:45.934Z,0.80
2018-03-07T02:33:37.631Z,0.80
2018-03-07T02:38:28.546Z,0.80
2018-03-07T02:43:19.445Z,0.80
2018-03-07T02:48:17.438Z,0.80
2018-03-07T02:53:08.357Z,0.80
2018-03-07T02:57:59.248Z,0.80
2018-03-07T03:02:50.900Z,0.80
2018-03-07T03:07:42.547Z,0.80
2018-03-07T03:12:34.190Z,0.80
2018-03-07T03:17:25.835Z,0.80
2018-03-07T03:22:16.738Z,0.80
2018-03-07T03:27:08.356Z,0.80
2018-03-07T03:31:59.256Z,0.80
2018-03-07T03:36:50.141Z,0.80
2018-03-07T03:41:41.110Z,0.80
2018-03-07T03:46:32.003Z,0.80
2018-03-07T03:51:22.898Z,0.80
2018-03-07T03:56:14.534Z,0.80
2018-03-07T04:01:05.412Z,0.80
2018-03-07T04:05:56.306Z,0.80
2018-03-07T04:10:47.941Z,0.80
2018-03-07T04:15:38.819Z,0.80
2018-03-07T04:20:29.696Z,0.80
2018-03-07T04:25:21.320Z,0.80
2018-03-07T04:30:12.209Z,0.80
2018-03-07T04:35:03.088Z,0.80
2018-03-07T04:39:54.708Z,0.80
2018-03-07T04:44:45.702Z,0.70
2018-03-07T04:49:36.686Z,0.80
2018-03-07T04:54:27.595Z,0.80
2018-03-07T04:59:19.285Z,0.80
2018-03-07T05:04:10.177Z,0.70
2018-03-07T05:09:01.074Z,0.80
2018-03-07T05:13:52.718Z,0.80
2018-03-07T05:18:44.389Z,0.80
2018-03-07T05:23:35.996Z,0.80
2018-03-07T05:28:26.881Z,0.70
2018-03-07T05:33:17.810Z,0.70
2018-03-07T05:38:08.716Z,0.80
2018-03-07T05:42:59.610Z,0.80
2018-03-07T05:47:50.600Z,0.70
2018-03-07T05:52:41.480Z,0.80
2018-03-07T05:57:32.477Z,0.70
2018-03-07T06:02:23.379Z,0.80
2018-03-07T06:07:14.258Z,0.80
2018-03-07T06:12:06.308Z,0.80
2018-03-07T06:16:57.297Z,0.80
2018-03-07T06:21:48.181Z,0.80
2018-03-07T06:26:39.151Z,0.80
2018-03-07T06:31:30.061Z,0.80
2018-03-07T06:36:20.994Z,0.80
2018-03-07T06:41:11.889Z,0.90
2018-03-07T06:46:02.941Z,0.90
2018-03-07T06:50:53.830Z,0.90
2018-03-07T06:55:45.466Z,0.90
2018-03-07T07:00:37.117Z,0.90
2018-03-07T07:05:28.776Z,0.90
2018-03-07T07:10:19.629Z,0.90
2018-03-07T07:15:10.533Z,1.00
2018-03-07T07:20:02.153Z,1.00
2018-03-07T07:24:53.030Z,1.00
2018-03-07T07:29:43.913Z,1.00
2018-03-07T07:34:35.550Z,1.10
2018-03-07T07:39:27.244Z,1.10
2018-03-07T07:44:18.158Z,1.10
2018-03-07T07:49:09.045Z,1.10
2018-03-07T07:54:00.665Z,1.20
2018-03-07T07:58:51.564Z,1.10
2018-03-07T08:03:42.451Z,1.20
2018-03-07T08:08:33.367Z,1.20
2018-03-07T08:13:25.033Z,1.20
2018-03-07T08:18:15.951Z,1.20
2018-03-07T08:23:07.558Z,1.30
2018-03-07T08:27:58.562Z,1.30
2018-03-07T08:32:49.469Z,1.30
2018-03-07T08:37:40.430Z,1.30
2018-03-07T08:42:31.309Z,1.40
2018-03-07T08:47:22.190Z,1.40
2018-03-07T08:52:13.082Z,1.40
2018-03-07T08:57:04.010Z,1.50
2018-03-07T09:01:54.894Z,1.50
2018-03-07T09:06:46.586Z,1.50
2018-03-07T09:11:37.470Z,1.50
2018-03-07T09:16:29.097Z,1.50
2018-03-07T09:21:20.003Z,1.50
2018-03-07T09:26:10.894Z,1.60
2018-03-07T09:31:01.765Z,1.60
2018-03-07T09:35:52.650Z,1.60
2018-03-07T09:40:43.553Z,1.60
2018-03-07T09:45:34.433Z,1.70
2018-03-07T09:50:25.314Z,1.70
2018-03-07T09:55:16.202Z,1.70
2018-03-07T10:00:07.107Z,1.80
2018-03-07T10:04:57.986Z,1.80
2018-03-07T10:09:49.623Z,1.90
2018-03-07T10:14:41.299Z,1.90
2018-03-07T10:19:32.186Z,1.90
2018-03-07T10:24:23.818Z,2.00
2018-03-07T10:29:14.698Z,2.00
2018-03-07T10:34:05.594Z,2.10
2018-03-07T10:38:57.221Z,2.10
2018-03-07T10:43:48.115Z,2.10
2018-03-07T10:48:46.604Z,2.20
2018-03-07T10:53:37.525Z,2.20
2018-03-07T10:58:28.419Z,2.20
2018-03-07T11:03:20.029Z,2.30
2018-03-07T11:08:10.914Z,2.30
2018-03-07T11:13:01.812Z,2.30
2018-03-07T11:17:52.698Z,2.30
2018-03-07T11:22:43.576Z,2.30
2018-03-07T11:27:34.457Z,2.30
2018-03-07T11:32:26.077Z,2.30
2018-03-07T11:37:16.999Z,2.30
2018-03-07T11:42:07.886Z,2.30
2018-03-07T11:46:59.512Z,2.40
2018-03-07T11:51:50.414Z,2.40
2018-03-07T11:56:42.045Z,2.40
2018-03-07T12:01:32.947Z,2.40
2018-03-07T12:06:26.830Z,2.40
2018-03-07T12:11:17.734Z,2.50
2018-03-07T12:16:08.617Z,2.50
2018-03-07T12:20:59.499Z,2.50
2018-03-07T12:25:50.381Z,2.50
2018-03-07T12:30:41.275Z,2.50
2018-03-07T12:35:32.168Z,2.50
2018-03-07T12:40:23.813Z,2.40
2018-03-07T12:45:14.677Z,2.40
2018-03-07T12:50:05.570Z,2.40
2018-03-07T12:54:57.274Z,2.40
2018-03-07T12:59:48.161Z,2.30
2018-03-07T13:04:39.051Z,2.30
2018-03-07T13:09:29.931Z,2.30
2018-03-07T13:14:21.573Z,2.20
2018-03-07T13:19:13.202Z,2.20
2018-03-07T13:24:04.870Z,2.20
2018-03-07T13:28:55.741Z,2.20
2018-03-07T13:33:46.629Z,2.20
2018-03-07T13:38:37.514Z,2.10
2018-03-07T13:43:28.397Z,2.20
2018-03-07T13:48:19.279Z,2.20
2018-03-07T13:53:10.171Z,2.20
2018-03-07T13:58:01.062Z,2.20
2018-03-07T14:02:51.946Z,2.20
2018-03-07T14:07:42.810Z,2.20
2018-03-07T14:12:33.792Z,2.20
2018-03-07T14:17:24.667Z,2.20
2018-03-07T14:22:15.549Z,2.20
2018-03-07T14:27:06.433Z,2.20
2018-03-07T14:31:57.366Z,2.20
2018-03-07T14:36:48.285Z,2.20
2018-03-07T14:41:39.172Z,2.20
2018-03-07T14:46:30.961Z,2.20
2018-03-07T14:51:21.894Z,2.20
2018-03-07T14:56:12.822Z,2.20
2018-03-07T15:01:03.735Z,2.20
2018-03-07T15:05:54.662Z,2.20
2018-03-07T15:10:45.579Z,2.20
2018-03-07T15:15:36.485Z,2.20
2018-03-07T15:20:27.594Z,2.10
2018-03-07T15:25:18.590Z,2.10
2018-03-07T15:30:09.498Z,2.10
2018-03-07T15:35:00.377Z,2.10
2018-03-07T15:39:51.266Z,2.10
2018-03-07T15:44:42.176Z,2.10
2018-03-07T15:49:33.141Z,2.10
2018-03-07T15:54:24.017Z,2.10
2018-03-07T15:59:15.126Z,2.10
2018-03-07T16:04:06.017Z,2.10
2018-03-07T16:08:57.002Z,2.10
2018-03-07T16:13:47.991Z,2.10
2018-03-07T16:18:38.901Z,2.10
2018-03-07T16:23:29.816Z,2.10
2018-03-07T16:28:21.455Z,2.10
2018-03-07T16:33:12.341Z,2.00
2018-03-07T16:38:03.261Z,2.10
2018-03-07T16:42:54.154Z,2.10
2018-03-07T16:47:45.787Z,2.00
2018-03-07T16:52:37.420Z,2.00
2018-03-07T16:57:28.311Z,2.10
2018-03-07T17:02:19.188Z,2.00
2018-03-07T17:07:10.122Z,2.00
2018-03-07T17:12:00.984Z,2.00
2018-03-07T17:16:51.927Z,2.00
2018-03-07T17:21:42.818Z,2.00
2018-03-07T17:26:34.447Z,2.00
2018-03-07T17:31:26.131Z,2.00
2018-03-07T17:36:17.022Z,1.90
2018-03-07T17:41:08.720Z,1.90
2018-03-07T17:45:59.597Z,1.90
2018-03-07T17:50:51.214Z,1.90
2018-03-07T17:55:42.122Z,1.90
2018-03-07T18:00:33.749Z,1.80
2018-03-07T18:05:24.690Z,1.80
2018-03-07T18:10:15.598Z,1.90
2018-03-07T18:15:06.473Z,1.90
2018-03-07T18:19:57.361Z,1.90
2018-03-07T18:24:48.310Z,1.90
2018-03-07T18:29:39.225Z,1.90
2018-03-07T18:34:30.120Z,1.90
2018-03-07T18:39:21.746Z,1.90
2018-03-07T18:44:12.643Z,1.80
2018-03-07T18:49:03.546Z,1.90
2018-03-07T18:53:55.176Z,1.90
2018-03-07T18:58:46.052Z,1.90
2018-03-07T19:03:37.665Z,1.90
2018-03-07T19:08:28.581Z,1.80
2018-03-07T19:13:19.496Z,1.90
2018-03-07T19:18:10.384Z,1.90
2018-03-07T19:23:02.961Z,1.80
2018-03-07T19:27:53.848Z,1.90
2018-03-07T19:32:44.729Z,1.90
2018-03-07T19:37:36.360Z,1.90
2018-03-07T19:42:27.263Z,1.80
2018-03-07T19:47:18.179Z,1.90
2018-03-07T19:52:09.057Z,1.80
2018-03-07T19:57:00.729Z,1.80
2018-03-07T20:01:51.668Z,1.80
2018-03-07T20:06:42.563Z,1.80
2018-03-07T20:11:33.507Z,1.80
2018-03-07T20:16:24.409Z,1.80
2018-03-07T20:21:16.029Z,1.80
2018-03-07T20:26:06.918Z,1.80
2018-03-07T20:30:57.801Z,1.80
2018-03-07T20:35:49.495Z,1.80
2018-03-07T20:40:40.381Z,1.70
2018-03-07T20:45:32.072Z,1.80
2018-03-07T20:50:22.957Z,1.70
2018-03-07T20:55:14.595Z,1.70
2018-03-07T21:00:06.219Z,1.70
2018-03-07T21:04:57.114Z,1.70
2018-03-07T21:09:48.001Z,1.70
2018-03-07T21:14:39.634Z,1.70
2018-03-07T21:19:31.269Z,1.70
2018-03-07T21:24:22.267Z,1.60
2018-03-07T21:29:13.138Z,1.60
2018-03-07T21:34:04.767Z,1.60
2018-03-07T21:38:55.659Z,1.60
2018-03-07T21:43:46.537Z,1.60
2018-03-07T21:48:37.423Z,1.60
2018-03-07T21:53:28.301Z,1.60
2018-03-07T21:58:19.930Z,1.60
2018-03-07T22:03:10.805Z,1.60
2018-03-07T22:08:01.692Z,1.60
2018-03-07T22:12:53.335Z,1.60
2018-03-07T22:17:44.221Z,1.60
2018-03-07T22:22:35.093Z,1.60
2018-03-07T22:27:25.978Z,1.60
2018-03-07T22:32:16.858Z,1.60
2018-03-07T22:37:07.733Z,1.60
2018-03-07T22:41:58.633Z,1.60
2018-03-07T22:46:50.315Z,1.60
2018-03-07T22:51:41.898Z,1.60
2018-03-07T22:56:32.790Z,1.60
2018-03-07T23:01:23.701Z,1.60
2018-03-07T23:06:14.585Z,1.60
2018-03-07T23:11:06.210Z,1.60
2018-03-07T23:15:57.086Z,1.60
2018-03-07T23:20:48.727Z,1.60
2018-03-07T23:25:39.601Z,1.60
2018-03-07T23:30:30.513Z,1.60
2018-03-07T23:35:21.407Z,1.60
2018-03-07T23:40:12.309Z,1.60
2018-03-07T23:45:03.207Z,1.60
2018-03-07T23:49:54.093Z,1.60
2018-03-07T23:54:44.984Z,1.60
2018-03-07T23:59:35.862Z,1.60
